Time;durP1;ratioP1;P1;durP2;ratioP2;P2;SDS_P1;SDS_P2;PMS_P1;PMS_P2;Temp;Humidity;BMP_temperature;BMP_pressure;BME280_temperature;BME280_humidity;BME280_pressure;Samples;Min_cycle;Max_cycle;Signal;HPM_P1;HPM_P2
2023/01/31 00:01:14;;;;;;;0.65;0.65;;;;;;;1.87;59.61;99549.59;5106461;28;20034;-75
2023/01/31 00:03:41;;;;;;;0.60;0.60;;;;;;;1.85;59.67;99555.53;5106568;28;20251;-76
2023/01/31 00:06:19;;;;;;;0.57;0.57;;;;;;;1.85;59.55;99554.69;5106511;28;20023;-75
2023/01/31 00:08:46;;;;;;;0.60;0.60;;;;;;;1.86;59.79;99546.16;5088281;28;20137;-75
2023/01/31 00:11:12;;;;;;;0.60;0.60;;;;;;;1.79;59.80;99539.25;5088151;28;20049;-75
2023/01/31 00:13:38;;;;;;;0.60;0.60;;;;;;;1.85;59.73;99547.84;5106418;28;20034;-75
2023/01/31 00:16:04;;;;;;;0.60;0.60;;;;;;;1.81;59.88;99542.66;5107577;28;20049;-75
2023/01/31 00:18:30;;;;;;;0.50;0.50;;;;;;;1.88;60.03;99541.94;5107271;28;20042;-76
2023/01/31 00:20:55;;;;;;;0.60;0.60;;;;;;;1.87;59.90;99539.34;5087921;28;20024;-75
2023/01/31 00:23:21;;;;;;;0.60;0.60;;;;;;;1.89;59.92;99529.97;5087543;28;20023;-76
2023/01/31 00:25:46;;;;;;;0.60;0.60;;;;;;;1.91;59.92;99526.59;5087906;28;20028;-76
2023/01/31 00:28:12;;;;;;;0.60;0.60;;;;;;;1.94;59.92;99542.00;5105717;28;20020;-76
2023/01/31 00:30:37;;;;;;;0.50;0.50;;;;;;;1.96;59.94;99552.25;5087952;28;20426;-75
2023/01/31 00:33:03;;;;;;;0.60;0.60;;;;;;;1.93;59.72;99537.69;5105952;28;20027;-74
2023/01/31 00:35:28;;;;;;;0.60;0.60;;;;;;;1.94;59.81;99542.00;5105935;28;20027;-74
2023/01/31 00:37:54;;;;;;;0.60;0.60;;;;;;;1.94;59.78;99548.81;5104481;28;20035;-75
2023/01/31 00:40:19;;;;;;;0.60;0.60;;;;;;;1.93;59.83;99552.22;5104613;28;20016;-74
2023/01/31 00:42:44;;;;;;;0.52;0.52;;;;;;;1.92;59.85;99558.16;5105870;28;20039;-75
2023/01/31 00:45:10;;;;;;;0.60;0.60;;;;;;;1.92;59.71;99559.03;5105417;28;20059;-75
2023/01/31 00:47:36;;;;;;;0.70;0.70;;;;;;;1.96;59.89;99578.72;5105841;28;20023;-75
2023/01/31 00:50:02;;;;;;;0.60;0.60;;;;;;;1.96;59.86;99577.88;5105641;28;20039;-75
2023/01/31 00:52:27;;;;;;;0.60;0.60;;;;;;;1.96;59.87;99580.41;5105605;28;20024;-71
2023/01/31 00:54:53;;;;;;;0.60;0.60;;;;;;;1.93;60.01;99576.09;5105690;28;20016;-72
2023/01/31 00:57:18;;;;;;;0.60;0.60;;;;;;;1.87;59.52;99582.84;5105802;28;20028;-72
2023/01/31 00:59:44;;;;;;;0.60;0.60;;;;;;;1.84;59.33;99593.91;5087320;28;20026;-71
2023/01/31 01:02:09;;;;;;;2.40;1.85;;;;;;;1.84;59.58;99597.31;5105496;28;20081;-72
2023/01/31 01:04:35;;;;;;;0.60;0.60;;;;;;;1.81;59.47;99592.16;5105795;28;20020;-73
2023/01/31 01:07:01;;;;;;;0.50;0.50;;;;;;;1.85;59.88;99593.06;5105616;28;20026;-71
2023/01/31 01:09:26;;;;;;;0.60;0.60;;;;;;;1.83;59.75;99598.19;5104443;28;20028;-72
2023/01/31 01:11:51;;;;;;;0.50;0.50;;;;;;;1.76;59.97;99595.50;5087138;28;20042;-72
2023/01/31 01:14:17;;;;;;;0.60;0.60;;;;;;;1.78;59.77;99599.81;5105266;28;20024;-72
2023/01/31 01:16:43;;;;;;;0.60;0.60;;;;;;;1.71;60.03;99600.56;5105558;28;20020;-72
2023/01/31 01:19:16;;;;;;;0.60;0.60;;;;;;;1.73;59.93;99588.63;5105483;28;20028;-72
2023/01/31 01:21:43;;;;;;;0.60;0.60;;;;;;;1.68;60.16;99590.25;5105388;28;20035;-73
2023/01/31 01:24:13;;;;;;;0.60;0.60;;;;;;;1.67;60.19;99581.72;5105248;28;20082;-72
2023/01/31 01:26:39;;;;;;;0.65;0.65;;;;;;;1.64;60.29;99591.06;5105369;28;20024;-72
2023/01/31 01:29:04;;;;;;;0.60;0.60;;;;;;;1.57;60.35;99579.88;5105086;28;20051;-72
2023/01/31 01:31:30;;;;;;;0.60;0.60;;;;;;;1.57;60.27;99588.41;5105090;28;20492;-72
2023/01/31 01:34:02;;;;;;;0.60;0.60;;;;;;;1.60;60.59;99592.69;5105093;28;20028;-73
2023/01/31 01:36:27;;;;;;;0.75;0.75;;;;;;;1.53;60.64;99585.78;5091018;28;20027;-73
2023/01/31 01:38:54;;;;;;;0.60;0.60;;;;;;;1.55;60.94;99586.69;5109466;28;20028;-73
2023/01/31 01:41:20;;;;;;;0.60;0.60;;;;;;;1.64;60.94;99599.59;5109261;28;20082;-72
2023/01/31 01:43:47;;;;;;;0.60;0.60;;;;;;;1.58;60.92;99590.13;5108869;28;20080;-72
2023/01/31 01:46:44;;;;;;;0.60;0.60;;;;;;;1.62;61.12;99603.81;5109163;28;20035;-73
2023/01/31 01:49:22;;;;;;;0.60;0.60;;;;;;;1.69;60.99;99610.75;5091127;28;20052;-72
2023/01/31 01:51:51;;;;;;;0.60;0.60;;;;;;;1.74;61.11;99605.72;5109375;28;20365;-72
2023/01/31 01:54:27;;;;;;;0.60;0.60;;;;;;;1.77;61.36;99603.22;5108980;28;20024;-72
2023/01/31 01:56:59;;;;;;;0.60;0.60;;;;;;;1.84;61.04;99606.69;5109083;28;20031;-73
2023/01/31 01:59:31;;;;;;;0.70;0.70;;;;;;;1.90;61.30;99605.94;5109201;28;20031;-73
2023/01/31 02:01:56;;;;;;;0.60;0.60;;;;;;;1.93;61.35;99611.09;5108806;28;20047;-72
2023/01/31 02:04:26;;;;;;;0.60;0.60;;;;;;;1.94;61.49;99613.69;5108855;28;20384;-73
2023/01/31 02:06:52;;;;;;;0.60;0.60;;;;;;;1.93;61.50;99605.97;5108912;28;20032;-72
2023/01/31 02:09:43;;;;;;;0.60;0.60;;;;;;;1.96;61.57;99621.38;5109152;28;20043;-72
2023/01/31 02:12:10;;;;;;;0.50;0.50;;;;;;;1.91;61.62;99616.19;5108623;28;20020;-73
2023/01/31 02:14:36;;;;;;;0.60;0.60;;;;;;;2.00;61.60;99624.84;5108764;28;20110;-72
2023/01/31 02:17:01;;;;;;;0.60;0.60;;;;;;;1.97;61.75;99636.75;5108967;28;20085;-72
2023/01/31 02:19:46;;;;;;;0.50;0.50;;;;;;;2.03;61.69;99638.53;5108804;28;20063;-72
2023/01/31 02:22:29;;;;;;;0.60;0.60;;;;;;;2.06;61.83;99637.75;5108548;28;20071;-73
2023/01/31 02:25:04;;;;;;;0.60;0.60;;;;;;;2.01;61.86;99619.75;5108734;28;20027;-72
2023/01/31 02:27:58;;;;;;;0.52;0.52;;;;;;;2.04;61.89;99624.03;5108856;28;20028;-72
2023/01/31 02:30:37;;;;;;;0.60;0.60;;;;;;;2.00;61.96;99624.84;5108693;28;20460;-72
2023/01/31 02:33:23;;;;;;;0.60;0.60;;;;;;;2.00;61.89;99627.41;5108380;28;20023;-72
2023/01/31 02:35:57;;;;;;;0.50;0.50;;;;;;;2.04;62.01;99621.50;5108554;28;20016;-72
2023/01/31 02:38:33;;;;;;;0.55;0.55;;;;;;;2.07;62.08;99619.84;5108434;28;20034;-72
2023/01/31 02:41:01;;;;;;;0.50;0.50;;;;;;;2.09;62.11;99613.00;5107002;28;20028;-73
2023/01/31 02:46:44;;;;;;;0.55;0.55;;;;;;;2.07;61.69;99612.16;5108317;28;20596;-71
2023/01/31 02:49:33;;;;;;;0.60;0.60;;;;;;;2.08;61.79;99598.50;5108147;28;20040;-73
2023/01/31 02:52:17;;;;;;;0.60;0.60;;;;;;;2.15;61.79;99596.88;5108178;28;20023;-72
2023/01/31 02:58:01;;;;;;;0.60;0.60;;;;;;;2.25;61.58;99590.19;5108066;28;20043;-71
2023/01/31 03:00:31;;;;;;;0.50;0.50;;;;;;;2.24;61.49;99588.44;5107991;28;20020;-71
2023/01/31 03:02:56;;;;;;;0.60;0.60;;;;;;;2.28;61.62;99597.03;5107899;28;20024;-71
2023/01/31 03:05:22;;;;;;;0.60;0.60;;;;;;;2.30;61.67;99598.75;5107959;28;20024;-72
2023/01/31 03:07:59;;;;;;;0.60;0.60;;;;;;;2.27;61.45;99596.16;5089419;28;20063;-72
2023/01/31 03:10:39;;;;;;;0.60;0.60;;;;;;;2.27;61.42;99592.78;5089555;28;20028;-71
2023/01/31 03:13:28;;;;;;;0.60;0.60;;;;;;;2.28;61.28;99579.09;5107709;28;20016;-72
2023/01/31 03:18:48;;;;;;;6.15;3.50;;;;;;;2.13;61.39;99572.94;5108837;28;20043;-71
2023/01/31 03:21:25;;;;;;;0.60;0.60;;;;;;;2.17;61.37;99587.50;5107606;28;20028;-72
2023/01/31 03:23:54;;;;;;;0.60;0.60;;;;;;;2.17;61.18;99584.94;5107234;28;20032;-73
2023/01/31 03:26:21;;;;;;;0.50;0.50;;;;;;;2.17;61.35;99581.53;5107437;28;20024;-71
2023/01/31 03:28:53;;;;;;;0.73;0.73;;;;;;;2.13;61.31;99583.19;5089053;28;20115;-72
2023/01/31 03:31:42;;;;;;;0.60;0.60;;;;;;;2.16;61.29;99578.13;5089136;28;20461;-73
2023/01/31 03:34:12;;;;;;;0.60;0.60;;;;;;;2.14;61.30;99584.91;5107415;28;20027;-73
2023/01/31 03:36:52;;;;;;;0.75;0.75;;;;;;;2.11;61.46;99582.31;5089027;28;20043;-72
2023/01/31 03:39:52;;;;;;;0.60;0.60;;;;;;;2.11;61.38;99587.44;5107269;28;20046;-72
2023/01/31 03:42:27;;;;;;;0.60;0.60;;;;;;;2.13;61.42;99582.31;5106967;28;20035;-73
2023/01/31 03:44:56;;;;;;;0.60;0.60;;;;;;;2.17;61.30;99578.97;5106628;28;20491;-72
2023/01/31 03:47:26;;;;;;;0.60;0.60;;;;;;;2.20;61.22;99581.56;5106944;28;20353;-71
2023/01/31 03:49:54;;;;;;;0.60;0.60;;;;;;;2.15;60.92;99576.41;5107165;28;20027;-72
2023/01/31 03:52:28;;;;;;;0.60;0.60;;;;;;;2.15;60.80;99566.16;5106814;28;20024;-72
2023/01/31 03:54:59;;;;;;;0.50;0.50;;;;;;;2.10;60.94;99555.00;5088802;28;20027;-73
2023/01/31 03:57:31;;;;;;;0.68;0.68;;;;;;;2.22;60.96;99577.34;5106405;28;20358;-72
2023/01/31 03:59:59;;;;;;;0.70;0.70;;;;;;;2.19;60.85;99575.59;5088293;28;20388;-72
2023/01/31 04:02:30;;;;;;;0.75;0.75;;;;;;;2.22;60.63;99585.03;5106445;28;20028;-72
2023/01/31 04:05:19;;;;;;;0.70;0.70;;;;;;;2.21;60.85;99584.16;5107010;28;20024;-72
2023/01/31 04:07:45;;;;;;;0.63;0.63;;;;;;;2.29;60.58;99585.94;5106743;28;20059;-72
2023/01/31 04:10:14;;;;;;;0.60;0.60;;;;;;;2.35;60.82;99586.00;5106691;28;20032;-72
2023/01/31 04:12:40;;;;;;;0.52;0.52;;;;;;;2.35;60.78;99581.75;5106707;28;20428;-73
2023/01/31 04:15:07;;;;;;;0.60;0.60;;;;;;;2.29;60.58;99565.44;5106956;28;20498;-72
2023/01/31 04:17:33;;;;;;;0.60;0.60;;;;;;;2.30;60.71;99575.72;5089215;28;20020;-72
2023/01/31 04:19:58;;;;;;;0.60;0.60;;;;;;;2.33;60.48;99574.91;5107258;28;20052;-71
2023/01/31 04:22:24;;;;;;;0.50;0.50;;;;;;;2.33;60.41;99580.88;5088491;28;20024;-72
2023/01/31 04:24:50;;;;;;;0.60;0.60;;;;;;;2.32;60.55;99568.03;5107011;28;20023;-71
2023/01/31 04:27:15;;;;;;;0.60;0.60;;;;;;;2.26;60.54;99568.84;5106430;28;20040;-71
2023/01/31 04:29:41;;;;;;;0.60;0.60;;;;;;;2.20;60.73;99568.78;5087910;28;20061;-71
2023/01/31 04:32:06;;;;;;;0.50;0.50;;;;;;;2.10;60.92;99573.78;5106102;28;20044;-71
2023/01/31 04:34:32;;;;;;;0.50;0.50;;;;;;;2.11;61.00;99579.75;5106154;28;20050;-73
2023/01/31 04:36:57;;;;;;;0.60;0.60;;;;;;;2.09;61.06;99578.88;5106275;28;20031;-73
2023/01/31 04:39:23;;;;;;;0.60;0.60;;;;;;;1.98;61.37;99558.28;5106053;28;20487;-73
2023/01/31 04:41:48;;;;;;;0.50;0.50;;;;;;;2.01;61.47;99576.22;5105893;28;20050;-73
2023/01/31 04:44:15;;;;;;;0.60;0.60;;;;;;;1.95;61.42;99558.22;5087443;28;20475;-73
2023/01/31 04:46:41;;;;;;;0.50;0.50;;;;;;;2.02;61.69;99556.59;5087373;28;20038;-73
2023/01/31 04:49:07;;;;;;;0.60;0.60;;;;;;;1.96;62.00;99559.94;5087497;28;20023;-73
2023/01/31 04:51:32;;;;;;;0.60;0.60;;;;;;;1.92;62.17;99548.78;5105774;28;20028;-73
2023/01/31 04:53:58;;;;;;;0.60;0.60;;;;;;;1.91;62.53;99551.34;5105752;28;20109;-73
2023/01/31 04:56:23;;;;;;;0.60;0.60;;;;;;;1.91;62.53;99547.09;5105588;28;20026;-71
2023/01/31 04:58:49;;;;;;;0.50;0.50;;;;;;;1.92;62.51;99546.22;5105652;28;20020;-72
2023/01/31 05:01:14;;;;;;;0.50;0.50;;;;;;;1.97;62.45;99538.59;5105822;28;20111;-71
2023/01/31 05:03:40;;;;;;;0.50;0.50;;;;;;;1.95;62.33;99538.59;5105551;28;20111;-71
2023/01/31 05:06:05;;;;;;;0.52;0.52;;;;;;;1.95;62.45;99535.19;5105562;28;20091;-71
2023/01/31 05:08:31;;;;;;;0.60;0.60;;;;;;;1.94;62.50;99542.00;5105210;28;20038;-71
2023/01/31 05:11:00;;;;;;;0.60;0.60;;;;;;;1.90;62.49;99542.78;5105208;28;20027;-72
2023/01/31 05:13:26;;;;;;;0.60;0.60;;;;;;;1.81;62.58;99532.44;5105172;28;20026;-71
2023/01/31 05:15:53;;;;;;;0.60;0.60;;;;;;;1.80;62.38;99541.81;5105661;28;20099;-71
2023/01/31 05:18:18;;;;;;;0.60;0.60;;;;;;;1.81;62.54;99537.53;5087706;28;20053;-72
2023/01/31 05:20:44;;;;;;;0.60;0.60;;;;;;;1.78;62.43;99532.38;5106047;28;20087;-72
2023/01/31 05:23:09;;;;;;;0.60;0.60;;;;;;;1.72;62.45;99528.06;5105457;28;20050;-71
2023/01/31 05:25:36;;;;;;;0.57;0.57;;;;;;;1.73;62.55;99525.53;5105449;28;20051;-72
2023/01/31 05:28:03;;;;;;;0.60;0.60;;;;;;;1.69;62.62;99513.50;5103825;28;20028;-74
2023/01/31 05:30:28;;;;;;;0.60;0.60;;;;;;;1.69;62.51;99507.53;5105549;28;20044;-73
2023/01/31 05:32:53;;;;;;;0.60;0.60;;;;;;;1.72;62.71;99511.00;5105073;28;20035;-71
2023/01/31 05:35:19;;;;;;;0.60;0.60;;;;;;;1.69;62.71;99505.81;5105400;28;20043;-72
2023/01/31 05:37:45;;;;;;;0.60;0.60;;;;;;;1.68;62.64;99501.56;5105664;28;20032;-71
2023/01/31 05:40:12;;;;;;;0.60;0.60;;;;;;;1.67;62.62;99494.72;5087920;28;20032;-71
2023/01/31 05:42:38;;;;;;;0.50;0.50;;;;;;;1.68;62.62;99508.38;5087441;28;20511;-72
2023/01/31 05:45:04;;;;;;;1.23;1.17;;;;;;;1.59;62.70;99496.31;5104598;28;20039;-71
2023/01/31 05:47:36;;;;;;;0.60;0.60;;;;;;;1.61;62.68;99510.84;5105222;28;20035;-71
2023/01/31 05:50:03;;;;;;;0.57;0.57;;;;;;;1.56;62.69;99498.84;5105747;28;20024;-71
2023/01/31 05:52:28;;;;;;;0.60;0.60;;;;;;;1.55;62.81;99504.81;5105382;28;20046;-72
2023/01/31 05:54:54;;;;;;;0.60;0.60;;;;;;;1.56;62.94;99506.50;5105434;28;20384;-72
2023/01/31 05:57:19;;;;;;;0.60;0.60;;;;;;;1.53;63.08;99501.34;5105197;28;20028;-71
2023/01/31 05:59:45;;;;;;;0.60;0.60;;;;;;;1.59;63.06;99509.13;5104905;28;20048;-71
2023/01/31 06:02:10;;;;;;;0.50;0.50;;;;;;;1.58;63.11;99504.84;5104941;28;20039;-72
2023/01/31 06:04:36;;;;;;;0.60;0.60;;;;;;;1.66;63.25;99507.50;5105230;28;20065;-73
2023/01/31 06:07:02;;;;;;;0.60;0.60;;;;;;;1.66;63.37;99510.06;5104949;28;20031;-71
2023/01/31 06:09:28;;;;;;;0.60;0.60;;;;;;;1.75;63.29;99507.63;5103811;28;20024;-72
2023/01/31 06:11:53;;;;;;;0.50;0.50;;;;;;;1.75;63.38;99488.84;5104534;28;20027;-76
2023/01/31 06:14:18;;;;;;;0.50;0.50;;;;;;;1.73;63.38;99489.69;5102271;28;20391;-75
2023/01/31 06:16:44;;;;;;;0.50;0.50;;;;;;;1.83;63.18;99492.38;5103754;28;20024;-75
2023/01/31 06:19:09;;;;;;;0.50;0.50;;;;;;;1.80;63.08;99487.22;5104994;28;20028;-76
2023/01/31 06:21:35;;;;;;;0.60;0.60;;;;;;;1.83;63.25;99479.56;5088776;28;20024;-75
2023/01/31 06:24:00;;;;;;;0.60;0.60;;;;;;;1.89;63.08;99481.31;5108101;28;20032;-75
2023/01/31 06:26:26;;;;;;;0.60;0.60;;;;;;;1.94;63.22;99472.88;5090360;28;20016;-75
2023/01/31 06:28:51;;;;;;;0.60;0.60;;;;;;;2.01;63.19;99467.81;5107179;28;20472;-75
2023/01/31 06:31:18;;;;;;;0.50;0.50;;;;;;;2.06;63.20;99474.72;5107620;28;20020;-73
2023/01/31 06:33:43;;;;;;;0.60;0.60;;;;;;;2.12;63.06;99480.75;5108008;28;20024;-71
2023/01/31 06:36:09;;;;;;;0.60;0.60;;;;;;;2.15;63.14;99470.53;5107070;28;20046;-71
2023/01/31 06:38:34;;;;;;;0.60;0.60;;;;;;;2.18;63.25;99463.75;5088946;28;20028;-72
2023/01/31 06:41:00;;;;;;;0.60;0.60;;;;;;;2.17;62.66;99467.13;5088765;28;20062;-73
2023/01/31 06:43:25;;;;;;;0.60;0.60;;;;;;;2.15;62.79;99468.84;5106696;28;20116;-72
2023/01/31 06:45:51;;;;;;;0.60;0.60;;;;;;;2.11;62.82;99451.72;5107042;28;20054;-70
2023/01/31 06:48:16;;;;;;;0.50;0.50;;;;;;;2.15;62.71;99452.63;5106863;28;20447;-72
2023/01/31 06:50:43;;;;;;;0.60;0.60;;;;;;;2.14;62.88;99450.91;5088600;28;20118;-71
2023/01/31 06:53:08;;;;;;;0.60;0.60;;;;;;;2.06;62.87;99438.03;5108035;28;20077;-70
2023/01/31 06:55:33;;;;;;;0.60;0.60;;;;;;;2.10;62.93;99450.88;5107921;28;20106;-70
2023/01/31 06:57:59;;;;;;;0.50;0.50;;;;;;;2.07;63.07;99445.72;5107990;28;20028;-71
2023/01/31 07:00:25;;;;;;;0.50;0.50;;;;;;;2.01;63.11;99435.41;5089222;28;20020;-71
2023/01/31 07:02:51;;;;;;;0.50;0.50;;;;;;;1.98;63.21;99449.03;5107485;28;20027;-71
2023/01/31 07:05:18;;;;;;;0.60;0.60;;;;;;;1.98;63.35;99450.75;5089696;28;20065;-71
2023/01/31 07:07:44;;;;;;;0.60;0.60;;;;;;;1.95;63.50;99453.28;5107754;28;20031;-72
2023/01/31 07:10:11;;;;;;;0.50;0.50;;;;;;;1.95;63.53;99451.56;5107686;28;20020;-72
2023/01/31 07:12:37;;;;;;;0.50;0.50;;;;;;;1.96;63.65;99449.84;5107773;28;20024;-71
2023/01/31 07:15:02;;;;;;;0.50;0.50;;;;;;;2.10;63.46;99444.88;5089469;28;20030;-73
2023/01/31 07:17:28;;;;;;;0.55;0.55;;;;;;;2.08;63.43;99447.44;5088243;28;20063;-69
2023/01/31 07:19:53;;;;;;;0.60;0.60;;;;;;;2.08;63.43;99439.75;5106445;28;20027;-72
2023/01/31 07:22:19;;;;;;;0.60;0.60;;;;;;;2.04;63.57;99429.47;5107877;28;20117;-72
2023/01/31 07:24:44;;;;;;;1.00;1.00;;;;;;;2.06;63.57;99432.91;5107474;28;20411;-72
2023/01/31 07:27:13;;;;;;;0.60;0.60;;;;;;;2.03;63.59;99435.44;5107250;28;20428;-71
2023/01/31 07:29:39;;;;;;;0.60;0.60;;;;;;;2.00;63.67;99430.28;5088884;28;20028;-71
2023/01/31 07:32:04;;;;;;;0.60;0.60;;;;;;;1.98;63.77;99425.16;5106633;28;20503;-72
2023/01/31 07:34:30;;;;;;;0.60;0.60;;;;;;;1.97;64.04;99426.84;5107242;28;20039;-71
2023/01/31 07:36:55;;;;;;;0.60;0.60;;;;;;;1.97;64.24;99424.28;5107328;28;20035;-71
2023/01/31 07:39:21;;;;;;;0.50;0.50;;;;;;;2.08;64.13;99431.19;5107477;28;20032;-71
2023/01/31 07:41:46;;;;;;;0.60;0.60;;;;;;;2.16;64.00;99432.13;5107400;28;20438;-71
2023/01/31 07:44:12;;;;;;;0.60;0.60;;;;;;;2.26;64.02;99424.53;5079308;28;20041;-73
2023/01/31 07:46:39;;;;;;;0.60;0.60;;;;;;;2.34;64.26;99428.91;5066962;28;20048;-72
2023/01/31 07:49:05;;;;;;;0.60;0.60;;;;;;;2.42;63.94;99418.75;5065583;28;20029;-72
2023/01/31 07:51:30;;;;;;;0.60;0.60;;;;;;;2.50;63.86;99412.81;5067056;28;20107;-72
2023/01/31 07:53:56;;;;;;;0.60;0.60;;;;;;;2.51;63.75;99407.69;5066585;28;20048;-72
2023/01/31 07:56:22;;;;;;;0.52;0.52;;;;;;;2.59;63.84;99397.50;5066810;28;20031;-73
2023/01/31 07:58:49;;;;;;;0.60;0.60;;;;;;;2.61;63.73;99388.13;5066764;28;20496;-72
2023/01/31 08:04:09;;;;;;;0.50;0.50;;;;;;;2.68;63.78;99365.97;5066953;28;20040;-73
2023/01/31 08:06:35;;;;;;;0.60;0.60;;;;;;;2.78;63.91;99359.22;5066324;28;20071;-72
2023/01/31 08:09:01;;;;;;;0.60;0.60;;;;;;;2.82;63.80;99366.06;5066485;28;20123;-72
2023/01/31 08:11:27;;;;;;;0.50;0.50;;;;;;;2.86;63.54;99349.84;5066309;28;20017;-72
2023/01/31 08:13:52;;;;;;;1.02;1.02;;;;;;;2.95;63.68;99355.06;5064747;28;20538;-72
2023/01/31 08:16:19;;;;;;;0.60;0.60;;;;;;;3.07;63.42;99361.06;5066241;28;20037;-72
2023/01/31 08:18:46;;;;;;;0.60;0.60;;;;;;;3.10;63.38;99356.81;5066402;28;20024;-73
2023/01/31 08:21:12;;;;;;;0.50;0.50;;;;;;;3.10;63.21;99350.81;5066193;28;20044;-71
2023/01/31 08:23:39;;;;;;;0.50;0.50;;;;;;;3.09;63.27;99344.88;5066065;28;20476;-72
2023/01/31 08:26:09;;;;;;;0.60;0.60;;;;;;;3.12;63.29;99332.88;5066202;28;20104;-72
2023/01/31 08:28:36;;;;;;;0.50;0.50;;;;;;;3.13;63.46;99327.75;5064452;28;20040;-71
2023/01/31 08:31:02;;;;;;;0.50;0.50;;;;;;;3.23;63.74;99318.41;5066066;28;20036;-71
2023/01/31 08:33:27;;;;;;;0.60;0.60;;;;;;;3.28;63.72;99310.72;5065894;28;20056;-71
2023/01/31 08:35:53;;;;;;;0.60;0.60;;;;;;;3.27;63.78;99306.47;5064717;28;20024;-72
2023/01/31 08:38:18;;;;;;;0.57;0.57;;;;;;;3.35;63.77;99312.47;5064744;28;20497;-72
2023/01/31 08:40:44;;;;;;;0.60;0.60;;;;;;;3.40;63.62;99308.22;5066257;28;20021;-72
2023/01/31 08:43:10;;;;;;;0.57;0.57;;;;;;;3.45;63.72;99308.25;5064043;28;20469;-73
2023/01/31 08:45:36;;;;;;;0.50;0.50;;;;;;;3.52;63.82;99303.97;5100615;28;20044;-71
2023/01/31 08:48:01;;;;;;;0.50;0.50;;;;;;;3.57;63.85;99297.13;5106216;28;20058;-72
2023/01/31 08:50:30;;;;;;;0.60;0.60;;;;;;;3.62;63.88;99290.31;5087861;28;20078;-72
2023/01/31 08:52:58;;;;;;;0.60;0.60;;;;;;;3.63;63.97;99291.16;5106136;28;20012;-72
2023/01/31 08:55:24;;;;;;;9.48;6.78;;;;;;;3.66;63.92;99286.88;5087575;28;20020;-70
2023/01/31 08:57:50;;;;;;;0.50;0.50;;;;;;;3.72;64.11;99284.31;5106040;28;20253;-71
2023/01/31 09:00:17;;;;;;;0.50;0.50;;;;;;;3.76;64.03;99282.63;5105931;28;20024;-70
2023/01/31 09:02:45;;;;;;;0.50;0.50;;;;;;;3.70;64.15;99282.63;5087587;28;20115;-72
2023/01/31 09:05:11;;;;;;;0.50;0.50;;;;;;;3.69;64.24;99278.34;5105649;28;20106;-72
2023/01/31 09:07:37;;;;;;;0.50;0.50;;;;;;;3.66;64.35;99265.50;5106347;28;20030;-72
2023/01/31 09:10:03;;;;;;;0.60;0.60;;;;;;;3.76;64.29;99279.19;5106617;28;20020;-72
2023/01/31 09:12:29;;;;;;;0.50;0.50;;;;;;;3.79;64.43;99268.91;5104403;28;20012;-73
2023/01/31 09:14:54;;;;;;;0.50;0.50;;;;;;;3.77;64.33;99258.66;5105688;28;20051;-71
2023/01/31 09:17:20;;;;;;;0.50;0.50;;;;;;;3.80;64.39;99253.53;5105559;28;20032;-72
2023/01/31 09:19:47;;;;;;;0.52;0.52;;;;;;;3.72;64.57;99243.25;5105815;28;20020;-72
2023/01/31 09:22:13;;;;;;;0.50;0.50;;;;;;;3.84;64.46;99251.81;5106031;28;20085;-71
2023/01/31 09:24:38;;;;;;;0.50;0.50;;;;;;;3.83;64.75;99247.56;5087242;28;20028;-72
2023/01/31 09:27:04;;;;;;;0.50;0.50;;;;;;;3.87;64.81;99244.13;5086791;28;20035;-71
2023/01/31 09:29:29;;;;;;;0.55;0.55;;;;;;;3.91;64.87;99243.28;5105263;28;20380;-71
2023/01/31 09:31:55;;;;;;;0.50;0.50;;;;;;;3.92;64.80;99237.28;5087185;28;20019;-73
2023/01/31 09:34:21;;;;;;;0.50;0.50;;;;;;;3.89;64.99;99224.44;5105445;28;20028;-72
2023/01/31 09:36:46;;;;;;;0.55;0.55;;;;;;;3.89;65.48;99227.00;5105349;28;20028;-73
2023/01/31 09:39:12;;;;;;;0.50;0.50;;;;;;;3.88;65.76;99235.56;5105324;28;20024;-72
2023/01/31 09:41:44;;;;;;;0.50;0.50;;;;;;;3.76;66.98;99225.28;5105241;28;20094;-71
2023/01/31 09:44:19;;;;;;;0.50;0.50;;;;;;;3.68;67.38;99218.44;5105031;28;20040;-70
2023/01/31 09:47:07;;;;;;;0.50;0.50;;;;;;;3.62;68.33;99220.16;5105453;28;20020;-70
2023/01/31 09:49:44;;;;;;;0.60;0.60;;;;;;;3.54;69.05;99205.59;5105327;28;20383;-72
2023/01/31 09:52:11;;;;;;;0.50;0.50;;;;;;;3.53;69.22;99196.19;5104835;28;20020;-71
2023/01/31 09:54:39;;;;;;;0.50;0.50;;;;;;;3.59;69.82;99195.34;5104505;28;20039;-70
2023/01/31 09:57:11;;;;;;;0.50;0.50;;;;;;;3.61;71.13;99195.34;5090014;28;20054;-71
2023/01/31 09:59:56;;;;;;;0.50;0.50;;;;;;;3.57;71.85;99184.22;5090295;28;20028;-70
2023/01/31 10:02:27;;;;;;;0.60;0.60;;;;;;;3.54;72.38;99184.22;5090281;28;20061;-70
2023/01/31 10:05:20;;;;;;;18.67;5.70;;;;;;;3.49;72.67;99170.50;5107141;28;20031;-71
2023/01/31 10:08:05;;;;;;;;;;;;;;;3.51;73.55;99155.97;5108211;28;20069;-71
2023/01/31 10:10:57;;;;;;;0.50;0.50;;;;;;;3.45;73.54;99139.72;5089856;28;20117;-71
2023/01/31 10:13:46;;;;;;;0.70;0.70;;;;;;;3.44;73.54;99130.31;5097163;28;20062;-72
2023/01/31 10:16:20;;;;;;;0.50;0.50;;;;;;;3.44;73.96;99129.47;5084737;28;20032;-71
2023/01/31 10:18:53;;;;;;;0.60;0.60;;;;;;;3.44;74.14;99120.06;5108476;28;20020;-70
2023/01/31 10:21:23;;;;;;;0.60;0.60;;;;;;;3.41;74.76;99122.63;5090152;28;20038;-72
2023/01/31 10:24:04;;;;;;;0.50;0.50;;;;;;;3.56;74.51;99115.78;5108848;28;20161;-72
2023/01/31 10:26:33;;;;;;;0.57;0.57;;;;;;;3.59;74.55;99118.34;5108893;28;20028;-71
2023/01/31 10:29:27;;;;;;;0.80;0.80;;;;;;;3.67;74.36;99123.47;5108659;28;20024;-72
2023/01/31 10:32:05;;;;;;;0.50;0.50;;;;;;;3.67;74.70;99111.50;5107310;28;20029;-71
2023/01/31 10:34:43;;;;;;;0.50;0.50;;;;;;;3.76;74.52;99115.75;5108559;28;20030;-72
2023/01/31 10:37:21;;;;;;;0.98;0.98;;;;;;;3.72;74.87;99111.50;5108809;28;20024;-72
2023/01/31 10:39:54;;;;;;;0.60;0.60;;;;;;;3.71;75.03;99110.63;5108632;28;20556;-72
2023/01/31 10:42:36;;;;;;;0.50;0.50;;;;;;;3.75;75.02;99105.50;5090394;28;20031;-72
2023/01/31 10:45:16;;;;;;;0.70;0.70;;;;;;;3.83;75.22;99111.47;5107912;28;20064;-72
2023/01/31 10:47:49;;;;;;;0.50;0.50;;;;;;;3.87;75.37;99109.72;5090284;28;20024;-72
2023/01/31 10:50:18;;;;;;;0.50;0.50;;;;;;;3.80;75.47;99101.22;5108356;28;20028;-72
2023/01/31 10:53:02;;;;;;;0.50;0.50;;;;;;;3.77;75.70;99099.47;5108341;28;20098;-70
2023/01/31 10:55:49;;;;;;;0.50;0.50;;;;;;;3.70;75.66;99098.66;5107991;28;20028;-71
2023/01/31 10:58:18;;;;;;;0.50;0.50;;;;;;;3.74;75.84;99102.06;5106811;28;20024;-71
2023/01/31 11:00:46;;;;;;;0.60;0.60;;;;;;;3.80;75.92;99106.34;5089575;28;20020;-71
2023/01/31 11:03:12;;;;;;;0.50;0.50;;;;;;;3.79;75.96;99091.78;5108087;28;20451;-71
2023/01/31 11:05:46;;;;;;;0.50;0.50;;;;;;;3.82;75.98;99102.03;5107811;28;20027;-72
2023/01/31 11:08:47;;;;;;;0.50;0.50;;;;;;;3.83;76.11;99089.19;5106595;28;20456;-71
2023/01/31 11:11:16;;;;;;;0.60;0.60;;;;;;;3.89;76.33;99090.91;5083980;28;20028;-71
2023/01/31 11:14:14;;;;;;;0.70;0.70;;;;;;;3.88;76.24;99070.38;5107424;28;20024;-72
2023/01/31 11:16:39;;;;;;;0.60;0.60;;;;;;;3.91;76.28;99070.38;5078864;28;20031;-72
2023/01/31 11:19:33;;;;;;;0.60;0.60;;;;;;;3.89;76.49;99057.53;5089550;28;20115;-71
2023/01/31 11:21:59;;;;;;;0.60;0.60;;;;;;;3.79;76.68;99049.00;5089555;28;20047;-71
2023/01/31 11:24:29;;;;;;;0.60;0.60;;;;;;;3.64;76.98;99037.06;5107818;28;20077;-71
2023/01/31 11:27:08;;;;;;;0.50;0.50;;;;;;;3.62;77.61;99043.03;5089457;28;20054;-71
2023/01/31 11:29:47;;;;;;;0.60;0.60;;;;;;;3.52;78.02;99031.94;5089697;28;20048;-70
2023/01/31 11:32:19;;;;;;;0.50;0.50;;;;;;;3.44;78.29;99022.56;5089350;28;20045;-70
2023/01/31 11:34:59;;;;;;;;;;;;;;;3.47;79.14;99032.81;5107900;28;20085;-71
2023/01/31 11:37:28;;;;;;;0.50;0.50;;;;;;;3.38;79.09;99014.88;5089049;28;20019;-70
2023/01/31 11:40:02;;;;;;;0.60;0.60;;;;;;;3.38;79.35;99014.00;5107620;28;20034;-69
2023/01/31 11:42:27;;;;;;;0.60;0.60;;;;;;;3.37;79.60;98996.91;5107353;28;20020;-69
2023/01/31 11:45:03;;;;;;;0.55;0.55;;;;;;;3.27;79.92;98983.25;5088698;28;20107;-69
2023/01/31 11:47:33;;;;;;;0.50;0.50;;;;;;;3.31;80.03;98982.38;5107247;28;20028;-69
2023/01/31 11:50:01;;;;;;;0.50;0.50;;;;;;;3.28;80.08;98967.84;5107141;28;20024;-69
2023/01/31 11:52:31;;;;;;;0.60;0.60;;;;;;;3.27;80.23;98955.03;5107031;28;20031;-69
2023/01/31 11:55:01;;;;;;;0.50;0.50;;;;;;;3.18;79.96;98935.41;5106957;28;20035;-70
2023/01/31 11:57:34;;;;;;;0.60;0.60;;;;;;;3.05;80.47;98927.69;5106858;28;20020;-69
2023/01/31 12:00:04;;;;;;;1.08;1.02;;;;;;;3.05;81.01;98927.69;5088850;28;20492;-70
2023/01/31 12:02:39;;;;;;;0.50;0.50;;;;;;;2.99;81.79;98919.19;5089173;28;20051;-72
2023/01/31 12:05:14;;;;;;;0.52;0.52;;;;;;;2.99;81.84;98889.25;5106705;28;20023;-70